Terminal Aerodrome Forecast
Issued by NWS

Home | Current Version | Previous Version | Text Only | Print | Product List | Glossary On
Versions: 1 2 3 4 5 6 7 8 9 10 11 12 13 14 15 16 17 18 19 20 21 22
000
FTUS45 KBOU 272324
TAFBJC
TAF
KBJC 272324Z 2800/2824 28015KT P6SM SCT120 SCT200
      TEMPO 2800/2801 28018G30KT
     FM280200 33010KT P6SM FEW200
     FM280500 25005KT P6SM FEW200
     FM281500 12008KT P6SM FEW200
     FM282100 15011KT P6SM VCTS SCT070CB BKN120=

USA.gov is the U.S. government's official web portal to all federal, state and local government web resources and services.